sensor_id;sensor_type;location;lat;lon;timestamp;P1;durP1;ratioP1;P2;durP2;ratioP2
42420;SDS011;28063;48.140;11.588;2022-11-20T00:03:36;2.38;;;1.52;;
42420;SDS011;28063;48.140;11.588;2022-11-20T00:06:02;2.20;;;1.45;;
42420;SDS011;28063;48.140;11.588;2022-11-20T00:08:29;3.33;;;1.40;;
42420;SDS011;28063;48.140;11.588;2022-11-20T00:10:55;3.78;;;2.00;;
42420;SDS011;28063;48.140;11.588;2022-11-20T00:13:21;4.30;;;2.08;;
42420;SDS011;28063;48.140;11.588;2022-11-20T00:15:47;2.85;;;1.80;;
42420;SDS011;28063;48.140;11.588;2022-11-20T00:18:13;2.38;;;1.50;;
42420;SDS011;28063;48.140;11.588;2022-11-20T00:20:39;1.67;;;1.48;;
42420;SDS011;28063;48.140;11.588;2022-11-20T00:23:06;3.95;;;2.00;;
42420;SDS011;28063;48.140;11.588;2022-11-20T00:25:33;2.50;;;1.77;;
42420;SDS011;28063;48.140;11.588;2022-11-20T00:28:00;3.70;;;1.90;;
42420;SDS011;28063;48.140;11.588;2022-11-20T00:30:26;2.17;;;1.88;;
42420;SDS011;28063;48.140;11.588;2022-11-20T00:32:52;2.22;;;1.70;;
42420;SDS011;28063;48.140;11.588;2022-11-20T00:35:18;2.45;;;2.10;;
42420;SDS011;28063;48.140;11.588;2022-11-20T00:37:44;3.53;;;1.70;;
42420;SDS011;28063;48.140;11.588;2022-11-20T00:40:11;1.92;;;1.83;;
42420;SDS011;28063;48.140;11.588;2022-11-20T00:42:37;2.20;;;2.05;;
42420;SDS011;28063;48.140;11.588;2022-11-20T00:45:03;3.67;;;2.35;;
42420;SDS011;28063;48.140;11.588;2022-11-20T00:47:29;4.80;;;2.00;;
42420;SDS011;28063;48.140;11.588;2022-11-20T00:49:55;2.67;;;1.80;;
42420;SDS011;28063;48.140;11.588;2022-11-20T00:52:21;3.75;;;1.80;;
42420;SDS011;28063;48.140;11.588;2022-11-20T00:54:47;3.28;;;1.80;;
42420;SDS011;28063;48.140;11.588;2022-11-20T00:57:13;2.42;;;1.90;;
42420;SDS011;28063;48.140;11.588;2022-11-20T00:59:39;3.30;;;1.85;;
42420;SDS011;28063;48.140;11.588;2022-11-20T01:02:05;3.50;;;2.10;;
42420;SDS011;28063;48.140;11.588;2022-11-20T01:04:31;2.15;;;1.55;;
42420;SDS011;28063;48.140;11.588;2022-11-20T01:06:57;2.08;;;1.75;;
42420;SDS011;28063;48.140;11.588;2022-11-20T01:09:23;2.38;;;1.80;;
42420;SDS011;28063;48.140;11.588;2022-11-20T01:11:49;2.13;;;1.67;;
42420;SDS011;28063;48.140;11.588;2022-11-20T01:14:17;2.72;;;1.80;;
42420;SDS011;28063;48.140;11.588;2022-11-20T01:16:44;2.38;;;1.77;;
42420;SDS011;28063;48.140;11.588;2022-11-20T01:19:13;2.70;;;1.70;;
42420;SDS011;28063;48.140;11.588;2022-11-20T01:21:40;2.10;;;1.92;;
42420;SDS011;28063;48.140;11.588;2022-11-20T01:24:07;3.92;;;1.70;;
42420;SDS011;28063;48.140;11.588;2022-11-20T01:26:37;2.78;;;1.70;;
42420;SDS011;28063;48.140;11.588;2022-11-20T01:29:03;3.28;;;1.92;;
42420;SDS011;28063;48.140;11.588;2022-11-20T01:31:31;4.10;;;1.90;;
42420;SDS011;28063;48.140;11.588;2022-11-20T01:33:58;4.53;;;1.80;;
42420;SDS011;28063;48.140;11.588;2022-11-20T01:36:26;2.17;;;1.95;;
42420;SDS011;28063;48.140;11.588;2022-11-20T01:38:53;2.10;;;1.90;;
42420;SDS011;28063;48.140;11.588;2022-11-20T01:41:19;2.75;;;1.77;;
42420;SDS011;28063;48.140;11.588;2022-11-20T01:44:05;2.15;;;1.55;;
42420;SDS011;28063;48.140;11.588;2022-11-20T01:46:32;1.83;;;1.35;;
42420;SDS011;28063;48.140;11.588;2022-11-20T01:49:04;1.95;;;1.67;;
42420;SDS011;28063;48.140;11.588;2022-11-20T01:51:35;2.67;;;2.10;;
42420;SDS011;28063;48.140;11.588;2022-11-20T01:54:06;2.37;;;1.77;;
42420;SDS011;28063;48.140;11.588;2022-11-20T01:56:34;3.05;;;1.85;;
42420;SDS011;28063;48.140;11.588;2022-11-20T01:59:02;4.32;;;1.67;;
42420;SDS011;28063;48.140;11.588;2022-11-20T02:01:30;2.67;;;1.88;;
42420;SDS011;28063;48.140;11.588;2022-11-20T02:03:56;1.70;;;1.60;;
42420;SDS011;28063;48.140;11.588;2022-11-20T02:06:23;4.13;;;1.98;;
42420;SDS011;28063;48.140;11.588;2022-11-20T02:08:50;3.90;;;1.90;;
42420;SDS011;28063;48.140;11.588;2022-11-20T02:11:16;3.67;;;1.73;;
42420;SDS011;28063;48.140;11.588;2022-11-20T02:13:43;1.42;;;1.30;;
42420;SDS011;28063;48.140;11.588;2022-11-20T02:18:44;4.25;;;1.75;;
42420;SDS011;28063;48.140;11.588;2022-11-20T02:26:21;2.40;;;1.73;;
42420;SDS011;28063;48.140;11.588;2022-11-20T02:28:48;3.38;;;1.73;;
42420;SDS011;28063;48.140;11.588;2022-11-20T02:31:15;2.30;;;1.63;;
42420;SDS011;28063;48.140;11.588;2022-11-20T02:33:41;2.95;;;1.67;;
42420;SDS011;28063;48.140;11.588;2022-11-20T02:36:08;3.85;;;2.00;;
42420;SDS011;28063;48.140;11.588;2022-11-20T02:38:36;2.40;;;1.60;;
42420;SDS011;28063;48.140;11.588;2022-11-20T02:41:03;2.45;;;1.55;;
42420;SDS011;28063;48.140;11.588;2022-11-20T02:43:29;2.95;;;1.80;;
42420;SDS011;28063;48.140;11.588;2022-11-20T02:45:55;4.63;;;2.33;;
42420;SDS011;28063;48.140;11.588;2022-11-20T02:48:21;2.70;;;1.75;;
42420;SDS011;28063;48.140;11.588;2022-11-20T02:50:47;2.17;;;1.70;;
42420;SDS011;28063;48.140;11.588;2022-11-20T02:53:13;3.33;;;2.00;;
42420;SDS011;28063;48.140;11.588;2022-11-20T02:55:39;3.00;;;1.60;;
42420;SDS011;28063;48.140;11.588;2022-11-20T02:58:05;3.72;;;2.10;;
42420;SDS011;28063;48.140;11.588;2022-11-20T03:00:31;1.92;;;1.70;;
42420;SDS011;28063;48.140;11.588;2022-11-20T03:02:57;2.15;;;1.90;;
42420;SDS011;28063;48.140;11.588;2022-11-20T03:05:23;5.25;;;2.63;;
42420;SDS011;28063;48.140;11.588;2022-11-20T03:07:49;3.45;;;1.90;;
42420;SDS011;28063;48.140;11.588;2022-11-20T03:10:16;2.05;;;1.83;;
42420;SDS011;28063;48.140;11.588;2022-11-20T03:12:42;2.33;;;2.05;;
42420;SDS011;28063;48.140;11.588;2022-11-20T03:15:08;2.60;;;1.90;;
42420;SDS011;28063;48.140;11.588;2022-11-20T03:17:35;1.58;;;1.48;;
42420;SDS011;28063;48.140;11.588;2022-11-20T03:20:01;3.25;;;2.10;;
42420;SDS011;28063;48.140;11.588;2022-11-20T03:22:28;2.72;;;1.88;;
42420;SDS011;28063;48.140;11.588;2022-11-20T03:24:55;3.22;;;1.60;;
42420;SDS011;28063;48.140;11.588;2022-11-20T03:27:21;2.67;;;2.03;;
42420;SDS011;28063;48.140;11.588;2022-11-20T03:29:47;2.40;;;1.55;;
42420;SDS011;28063;48.140;11.588;2022-11-20T03:32:13;2.83;;;1.92;;
42420;SDS011;28063;48.140;11.588;2022-11-20T03:34:39;1.95;;;1.80;;
42420;SDS011;28063;48.140;11.588;2022-11-20T03:37:05;2.92;;;1.83;;
42420;SDS011;28063;48.140;11.588;2022-11-20T03:39:31;3.05;;;2.17;;
42420;SDS011;28063;48.140;11.588;2022-11-20T03:41:57;6.72;;;2.58;;
42420;SDS011;28063;48.140;11.588;2022-11-20T03:44:23;8.27;;;2.85;;
42420;SDS011;28063;48.140;11.588;2022-11-20T03:46:51;5.63;;;2.35;;
42420;SDS011;28063;48.140;11.588;2022-11-20T03:49:17;2.63;;;1.75;;
42420;SDS011;28063;48.140;11.588;2022-11-20T03:51:43;3.35;;;2.22;;
42420;SDS011;28063;48.140;11.588;2022-11-20T03:54:09;2.88;;;2.38;;
42420;SDS011;28063;48.140;11.588;2022-11-20T03:56:36;1.90;;;1.63;;
42420;SDS011;28063;48.140;11.588;2022-11-20T03:59:02;1.92;;;1.55;;
42420;SDS011;28063;48.140;11.588;2022-11-20T04:01:33;4.10;;;2.00;;
42420;SDS011;28063;48.140;11.588;2022-11-20T04:03:59;1.90;;;1.77;;
42420;SDS011;28063;48.140;11.588;2022-11-20T04:06:26;5.95;;;2.17;;
42420;SDS011;28063;48.140;11.588;2022-11-20T04:08:57;2.65;;;1.40;;
42420;SDS011;28063;48.140;11.588;2022-11-20T04:11:24;1.88;;;1.75;;
42420;SDS011;28063;48.140;11.588;2022-11-20T04:13:55;3.65;;;2.08;;
42420;SDS011;28063;48.140;11.588;2022-11-20T04:16:21;3.38;;;1.73;;
42420;SDS011;28063;48.140;11.588;2022-11-20T04:18:58;1.80;;;1.70;;
42420;SDS011;28063;48.140;11.588;2022-11-20T04:21:25;2.47;;;2.10;;
42420;SDS011;28063;48.140;11.588;2022-11-20T04:23:51;2.60;;;1.50;;
42420;SDS011;28063;48.140;11.588;2022-11-20T04:26:18;3.53;;;2.13;;
42420;SDS011;28063;48.140;11.588;2022-11-20T04:28:44;2.30;;;1.80;;
42420;SDS011;28063;48.140;11.588;2022-11-20T04:31:13;3.05;;;1.80;;
42420;SDS011;28063;48.140;11.588;2022-11-20T04:33:40;2.20;;;1.40;;
42420;SDS011;28063;48.140;11.588;2022-11-20T04:36:07;2.75;;;1.20;;
42420;SDS011;28063;48.140;11.588;2022-11-20T04:38:33;2.13;;;1.70;;
42420;SDS011;28063;48.140;11.588;2022-11-20T04:41:00;2.20;;;1.58;;
42420;SDS011;28063;48.140;11.588;2022-11-20T04:43:26;2.10;;;1.90;;
42420;SDS011;28063;48.140;11.588;2022-11-20T04:45:53;2.30;;;1.90;;
42420;SDS011;28063;48.140;11.588;2022-11-20T04:48:23;4.00;;;2.00;;
42420;SDS011;28063;48.140;11.588;2022-11-20T04:50:49;2.80;;;1.70;;
42420;SDS011;28063;48.140;11.588;2022-11-20T04:53:15;3.55;;;1.80;;
42420;SDS011;28063;48.140;11.588;2022-11-20T04:55:41;3.42;;;2.38;;
42420;SDS011;28063;48.140;11.588;2022-11-20T04:58:07;3.25;;;2.47;;
42420;SDS011;28063;48.140;11.588;2022-11-20T05:00:34;3.17;;;2.40;;
42420;SDS011;28063;48.140;11.588;2022-11-20T05:03:00;2.40;;;2.03;;
42420;SDS011;28063;48.140;11.588;2022-11-20T05:05:26;2.05;;;1.90;;
42420;SDS011;28063;48.140;11.588;2022-11-20T05:07:52;2.95;;;2.17;;
42420;SDS011;28063;48.140;11.588;2022-11-20T05:10:18;2.15;;;1.88;;
42420;SDS011;28063;48.140;11.588;2022-11-20T05:12:44;3.00;;;1.85;;
42420;SDS011;28063;48.140;11.588;2022-11-20T05:15:10;2.90;;;2.30;;
42420;SDS011;28063;48.140;11.588;2022-11-20T05:17:36;4.32;;;2.60;;
42420;SDS011;28063;48.140;11.588;2022-11-20T05:20:05;4.25;;;2.38;;
42420;SDS011;28063;48.140;11.588;2022-11-20T05:22:34;1.75;;;1.65;;
42420;SDS011;28063;48.140;11.588;2022-11-20T05:25:02;2.22;;;2.00;;
42420;SDS011;28063;48.140;11.588;2022-11-20T05:27:28;2.80;;;2.13;;
42420;SDS011;28063;48.140;11.588;2022-11-20T05:29:54;2.17;;;1.95;;
42420;SDS011;28063;48.140;11.588;2022-11-20T05:32:20;3.50;;;2.42;;
42420;SDS011;28063;48.140;11.588;2022-11-20T05:34:50;3.28;;;2.33;;
42420;SDS011;28063;48.140;11.588;2022-11-20T05:37:16;2.25;;;1.67;;
42420;SDS011;28063;48.140;11.588;2022-11-20T05:39:42;3.70;;;2.40;;
42420;SDS011;28063;48.140;11.588;2022-11-20T05:42:08;2.42;;;2.05;;
42420;SDS011;28063;48.140;11.588;2022-11-20T05:44:55;2.75;;;2.08;;
42420;SDS011;28063;48.140;11.588;2022-11-20T05:47:21;2.85;;;1.90;;
42420;SDS011;28063;48.140;11.588;2022-11-20T05:49:47;3.15;;;2.45;;
42420;SDS011;28063;48.140;11.588;2022-11-20T05:52:13;5.03;;;2.47;;
42420;SDS011;28063;48.140;11.588;2022-11-20T05:54:39;2.42;;;1.92;;
42420;SDS011;28063;48.140;11.588;2022-11-20T05:57:05;2.88;;;2.33;;
42420;SDS011;28063;48.140;11.588;2022-11-20T05:59:32;2.15;;;1.92;;
42420;SDS011;28063;48.140;11.588;2022-11-20T06:01:57;2.67;;;1.90;;
42420;SDS011;28063;48.140;11.588;2022-11-20T06:04:24;3.03;;;2.13;;
42420;SDS011;28063;48.140;11.588;2022-11-20T06:06:50;3.95;;;2.05;;
42420;SDS011;28063;48.140;11.588;2022-11-20T06:09:16;2.30;;;1.98;;
42420;SDS011;28063;48.140;11.588;2022-11-20T06:11:42;5.00;;;2.13;;
42420;SDS011;28063;48.140;11.588;2022-11-20T06:14:08;3.50;;;1.85;;
42420;SDS011;28063;48.140;11.588;2022-11-20T06:16:34;2.28;;;1.80;;
42420;SDS011;28063;48.140;11.588;2022-11-20T06:19:00;3.72;;;1.88;;
42420;SDS011;28063;48.140;11.588;2022-11-20T06:21:26;2.72;;;2.00;;
42420;SDS011;28063;48.140;11.588;2022-11-20T06:23:52;5.28;;;1.92;;
42420;SDS011;28063;48.140;11.588;2022-11-20T06:26:20;2.40;;;2.00;;
42420;SDS011;28063;48.140;11.588;2022-11-20T06:28:46;2.00;;;1.80;;
42420;SDS011;28063;48.140;11.588;2022-11-20T06:31:14;3.50;;;1.98;;
42420;SDS011;28063;48.140;11.588;2022-11-20T06:33:40;6.25;;;2.20;;
42420;SDS011;28063;48.140;11.588;2022-11-20T06:36:07;2.33;;;1.63;;
42420;SDS011;28063;48.140;11.588;2022-11-20T06:38:33;1.92;;;1.70;;
42420;SDS011;28063;48.140;11.588;2022-11-20T06:40:59;3.00;;;2.13;;
42420;SDS011;28063;48.140;11.588;2022-11-20T06:43:25;3.45;;;1.90;;
42420;SDS011;28063;48.140;11.588;2022-11-20T06:45:52;1.30;;;1.20;;
42420;SDS011;28063;48.140;11.588;2022-11-20T06:48:18;1.73;;;1.63;;
42420;SDS011;28063;48.140;11.588;2022-11-20T06:50:45;2.35;;;1.70;;
42420;SDS011;28063;48.140;11.588;2022-11-20T06:53:11;1.63;;;1.40;;
42420;SDS011;28063;48.140;11.588;2022-11-20T06:55:37;2.10;;;1.42;;
42420;SDS011;28063;48.140;11.588;2022-11-20T06:58:07;2.58;;;1.52;;
42420;SDS011;28063;48.140;11.588;2022-11-20T07:00:33;1.75;;;1.63;;
42420;SDS011;28063;48.140;11.588;2022-11-20T07:03:02;1.65;;;1.45;;
42420;SDS011;28063;48.140;11.588;2022-11-20T07:05:31;3.90;;;2.00;;
42420;SDS011;28063;48.140;11.588;2022-11-20T07:07:57;2.35;;;1.38;;
42420;SDS011;28063;48.140;11.588;2022-11-20T07:10:23;4.90;;;1.73;;
42420;SDS011;28063;48.140;11.588;2022-11-20T07:12:50;2.22;;;1.25;;
42420;SDS011;28063;48.140;11.588;2022-11-20T07:15:23;5.05;;;2.00;;
42420;SDS011;28063;48.140;11.588;2022-11-20T07:17:53;3.70;;;2.70;;
42420;SDS011;28063;48.140;11.588;2022-11-20T07:20:19;2.28;;;1.90;;
42420;SDS011;28063;48.140;11.588;2022-11-20T07:22:45;2.47;;;2.00;;
42420;SDS011;28063;48.140;11.588;2022-11-20T07:25:11;2.38;;;2.17;;
42420;SDS011;28063;48.140;11.588;2022-11-20T07:27:37;2.75;;;1.77;;
42420;SDS011;28063;48.140;11.588;2022-11-20T07:30:09;4.88;;;2.92;;
42420;SDS011;28063;48.140;11.588;2022-11-20T07:32:38;2.90;;;2.50;;
42420;SDS011;28063;48.140;11.588;2022-11-20T07:35:04;2.00;;;1.80;;
42420;SDS011;28063;48.140;11.588;2022-11-20T07:37:33;2.25;;;1.90;;
42420;SDS011;28063;48.140;11.588;2022-11-20T07:39:59;1.85;;;1.63;;
42420;SDS011;28063;48.140;11.588;2022-11-20T07:42:25;2.97;;;2.67;;
42420;SDS011;28063;48.140;11.588;2022-11-20T07:44:51;1.92;;;1.83;;
42420;SDS011;28063;48.140;11.588;2022-11-20T07:47:17;2.08;;;1.85;;
42420;SDS011;28063;48.140;11.588;2022-11-20T07:49:43;2.55;;;2.00;;
42420;SDS011;28063;48.140;11.588;2022-11-20T07:52:18;3.85;;;1.60;;
42420;SDS011;28063;48.140;11.588;2022-11-20T07:54:53;3.20;;;1.58;;
42420;SDS011;28063;48.140;11.588;2022-11-20T07:57:23;3.03;;;2.15;;
42420;SDS011;28063;48.140;11.588;2022-11-20T07:59:49;2.47;;;1.73;;
42420;SDS011;28063;48.140;11.588;2022-11-20T08:02:23;3.83;;;1.60;;
42420;SDS011;28063;48.140;11.588;2022-11-20T08:04:49;2.92;;;2.53;;
42420;SDS011;28063;48.140;11.588;2022-11-20T08:07:15;2.88;;;1.80;;
42420;SDS011;28063;48.140;11.588;2022-11-20T08:09:43;1.33;;;1.23;;
42420;SDS011;28063;48.140;11.588;2022-11-20T08:12:16;3.00;;;1.42;;
42420;SDS011;28063;48.140;11.588;2022-11-20T08:15:11;2.53;;;1.60;;
42420;SDS011;28063;48.140;11.588;2022-11-20T08:17:37;2.60;;;1.67;;
42420;SDS011;28063;48.140;11.588;2022-11-20T08:20:03;1.98;;;1.27;;
42420;SDS011;28063;48.140;11.588;2022-11-20T08:22:29;2.75;;;1.40;;
42420;SDS011;28063;48.140;11.588;2022-11-20T08:24:55;2.63;;;1.40;;
42420;SDS011;28063;48.140;11.588;2022-11-20T08:27:22;1.77;;;1.60;;
42420;SDS011;28063;48.140;11.588;2022-11-20T08:29:49;1.30;;;1.13;;
42420;SDS011;28063;48.140;11.588;2022-11-20T08:32:17;1.95;;;1.42;;
42420;SDS011;28063;48.140;11.588;2022-11-20T08:34:54;2.85;;;1.40;;
42420;SDS011;28063;48.140;11.588;2022-11-20T08:37:24;2.97;;;1.30;;
42420;SDS011;28063;48.140;11.588;2022-11-20T08:39:56;2.30;;;1.52;;
42420;SDS011;28063;48.140;11.588;2022-11-20T08:42:25;2.20;;;1.48;;
42420;SDS011;28063;48.140;11.588;2022-11-20T08:45:02;1.85;;;1.55;;
42420;SDS011;28063;48.140;11.588;2022-11-20T08:47:31;3.03;;;1.48;;
42420;SDS011;28063;48.140;11.588;2022-11-20T08:49:57;2.88;;;1.58;;
42420;SDS011;28063;48.140;11.588;2022-11-20T08:52:25;1.92;;;1.45;;
42420;SDS011;28063;48.140;11.588;2022-11-20T08:54:55;2.75;;;1.52;;
42420;SDS011;28063;48.140;11.588;2022-11-20T08:57:23;1.52;;;1.42;;
42420;SDS011;28063;48.140;11.588;2022-11-20T08:59:49;1.88;;;1.67;;
42420;SDS011;28063;48.140;11.588;2022-11-20T09:02:17;2.38;;;1.73;;
42420;SDS011;28063;48.140;11.588;2022-11-20T09:04:45;1.60;;;1.50;;
42420;SDS011;28063;48.140;11.588;2022-11-20T09:07:11;2.30;;;1.20;;
42420;SDS011;28063;48.140;11.588;2022-11-20T09:09:38;1.23;;;1.10;;
42420;SDS011;28063;48.140;11.588;2022-11-20T09:12:10;4.93;;;1.65;;
42420;SDS011;28063;48.140;11.588;2022-11-20T09:14:36;2.70;;;1.50;;
42420;SDS011;28063;48.140;11.588;2022-11-20T09:17:02;3.35;;;1.58;;
42420;SDS011;28063;48.140;11.588;2022-11-20T09:19:28;1.15;;;0.90;;
42420;SDS011;28063;48.140;11.588;2022-11-20T09:21:54;3.95;;;1.40;;
42420;SDS011;28063;48.140;11.588;2022-11-20T09:24:20;2.60;;;1.30;;
42420;SDS011;28063;48.140;11.588;2022-11-20T09:26:46;2.17;;;1.50;;
42420;SDS011;28063;48.140;11.588;2022-11-20T09:29:12;1.52;;;1.30;;
42420;SDS011;28063;48.140;11.588;2022-11-20T09:31:38;1.98;;;1.40;;
42420;SDS011;28063;48.140;11.588;2022-11-20T09:34:05;2.78;;;1.40;;
42420;SDS011;28063;48.140;11.588;2022-11-20T09:36:31;2.20;;;1.25;;
42420;SDS011;28063;48.140;11.588;2022-11-20T09:38:57;1.95;;;1.35;;
42420;SDS011;28063;48.140;11.588;2022-11-20T09:46:39;1.60;;;1.15;;
42420;SDS011;28063;48.140;11.588;2022-11-20T09:54:20;1.67;;;0.90;;
42420;SDS011;28063;48.140;11.588;2022-11-20T09:56:51;2.65;;;1.17;;
42420;SDS011;28063;48.140;11.588;2022-11-20T10:01:48;0.90;;;0.77;;
42420;SDS011;28063;48.140;11.588;2022-11-20T10:06:42;0.88;;;0.70;;
42420;SDS011;28063;48.140;11.588;2022-11-20T10:11:44;1.10;;;1.00;;
42420;SDS011;28063;48.140;11.588;2022-11-20T10:17:18;1.20;;;0.70;;
42420;SDS011;28063;48.140;11.588;2022-11-20T10:22:25;1.65;;;1.10;;
42420;SDS011;28063;48.140;11.588;2022-11-20T10:25:13;0.95;;;0.63;;
42420;SDS011;28063;48.140;11.588;2022-11-20T10:27:44;3.13;;;1.00;;
42420;SDS011;28063;48.140;11.588;2022-11-20T10:30:15;2.25;;;1.25;;
42420;SDS011;28063;48.140;11.588;2022-11-20T10:32:43;2.20;;;1.20;;
42420;SDS011;28063;48.140;11.588;2022-11-20T10:35:23;1.70;;;1.05;;
42420;SDS011;28063;48.140;11.588;2022-11-20T10:37:53;1.38;;;1.00;;
42420;SDS011;28063;48.140;11.588;2022-11-20T10:42:54;1.65;;;1.00;;
42420;SDS011;28063;48.140;11.588;2022-11-20T10:50:25;1.23;;;0.88;;
42420;SDS011;28063;48.140;11.588;2022-11-20T10:53:08;1.08;;;0.98;;
42420;SDS011;28063;48.140;11.588;2022-11-20T10:58:14;1.70;;;1.10;;
42420;SDS011;28063;48.140;11.588;2022-11-20T11:00:40;1.17;;;0.77;;
42420;SDS011;28063;48.140;11.588;2022-11-20T11:05:55;1.10;;;0.75;;
42420;SDS011;28063;48.140;11.588;2022-11-20T11:08:22;3.72;;;1.08;;
42420;SDS011;28063;48.140;11.588;2022-11-20T11:10:52;3.22;;;1.05;;
42420;SDS011;28063;48.140;11.588;2022-11-20T11:13:26;1.58;;;1.20;;
42420;SDS011;28063;48.140;11.588;2022-11-20T11:15:52;1.33;;;1.00;;
42420;SDS011;28063;48.140;11.588;2022-11-20T11:18:29;1.70;;;0.68;;
42420;SDS011;28063;48.140;11.588;2022-11-20T11:20:55;1.65;;;0.70;;
42420;SDS011;28063;48.140;11.588;2022-11-20T11:24:04;1.40;;;0.70;;
42420;SDS011;28063;48.140;11.588;2022-11-20T11:26:24;1.25;;;0.90;;
42420;SDS011;28063;48.140;11.588;2022-11-20T11:28:58;2.10;;;1.15;;
42420;SDS011;28063;48.140;11.588;2022-11-20T11:31:28;6.28;;;1.20;;
42420;SDS011;28063;48.140;11.588;2022-11-20T11:34:07;1.30;;;0.80;;
42420;SDS011;28063;48.140;11.588;2022-11-20T11:36:36;1.05;;;0.73;;
42420;SDS011;28063;48.140;11.588;2022-11-20T11:39:03;0.95;;;0.77;;
42420;SDS011;28063;48.140;11.588;2022-11-20T11:41:33;2.90;;;1.02;;
42420;SDS011;28063;48.140;11.588;2022-11-20T11:44:12;1.13;;;0.98;;
42420;SDS011;28063;48.140;11.588;2022-11-20T11:46:59;1.35;;;0.98;;
42420;SDS011;28063;48.140;11.588;2022-11-20T11:49:26;0.77;;;0.77;;
42420;SDS011;28063;48.140;11.588;2022-11-20T11:54:37;1.05;;;0.88;;
42420;SDS011;28063;48.140;11.588;2022-11-20T11:57:07;1.08;;;0.85;;
42420;SDS011;28063;48.140;11.588;2022-11-20T12:02:05;1.60;;;1.02;;
42420;SDS011;28063;48.140;11.588;2022-11-20T12:04:40;1.45;;;0.88;;
42420;SDS011;28063;48.140;11.588;2022-11-20T12:07:10;2.75;;;1.20;;
42420;SDS011;28063;48.140;11.588;2022-11-20T12:09:38;2.38;;;1.13;;
42420;SDS011;28063;48.140;11.588;2022-11-20T12:12:10;2.55;;;0.85;;
42420;SDS011;28063;48.140;11.588;2022-11-20T12:14:39;1.83;;;0.90;;
42420;SDS011;28063;48.140;11.588;2022-11-20T12:17:07;1.80;;;0.98;;
42420;SDS011;28063;48.140;11.588;2022-11-20T12:19:35;2.50;;;1.15;;
42420;SDS011;28063;48.140;11.588;2022-11-20T12:32:41;1.60;;;1.00;;
42420;SDS011;28063;48.140;11.588;2022-11-20T12:53:50;1.23;;;0.90;;
42420;SDS011;28063;48.140;11.588;2022-11-20T13:06:39;1.80;;;0.95;;
42420;SDS011;28063;48.140;11.588;2022-11-20T13:09:08;1.23;;;0.80;;
42420;SDS011;28063;48.140;11.588;2022-11-20T13:11:39;1.50;;;0.95;;
42420;SDS011;28063;48.140;11.588;2022-11-20T13:14:11;1.63;;;1.00;;
42420;SDS011;28063;48.140;11.588;2022-11-20T13:19:08;3.38;;;0.90;;
42420;SDS011;28063;48.140;11.588;2022-11-20T13:21:37;1.80;;;1.13;;
42420;SDS011;28063;48.140;11.588;2022-11-20T13:24:07;1.00;;;1.00;;
42420;SDS011;28063;48.140;11.588;2022-11-20T13:26:33;1.35;;;0.73;;
42420;SDS011;28063;48.140;11.588;2022-11-20T13:29:02;1.10;;;1.00;;
42420;SDS011;28063;48.140;11.588;2022-11-20T13:31:30;2.22;;;1.08;;
42420;SDS011;28063;48.140;11.588;2022-11-20T13:33:56;1.83;;;1.25;;
42420;SDS011;28063;48.140;11.588;2022-11-20T13:36:25;1.40;;;1.13;;
42420;SDS011;28063;48.140;11.588;2022-11-20T13:38:52;2.78;;;1.23;;
42420;SDS011;28063;48.140;11.588;2022-11-20T13:41:34;2.47;;;1.10;;
42420;SDS011;28063;48.140;11.588;2022-11-20T13:47:15;2.30;;;1.42;;
42420;SDS011;28063;48.140;11.588;2022-11-20T13:49:29;2.28;;;1.50;;
42420;SDS011;28063;48.140;11.588;2022-11-20T13:55:05;4.20;;;1.80;;
42420;SDS011;28063;48.140;11.588;2022-11-20T14:00:09;3.55;;;1.42;;
42420;SDS011;28063;48.140;11.588;2022-11-20T14:02:36;3.30;;;1.75;;
42420;SDS011;28063;48.140;11.588;2022-11-20T14:05:02;3.97;;;1.20;;
42420;SDS011;28063;48.140;11.588;2022-11-20T14:07:35;2.65;;;1.25;;
42420;SDS011;28063;48.140;11.588;2022-11-20T14:10:03;1.60;;;1.38;;
42420;SDS011;28063;48.140;11.588;2022-11-20T14:12:30;2.53;;;1.20;;
42420;SDS011;28063;48.140;11.588;2022-11-20T14:14:57;1.95;;;1.50;;
42420;SDS011;28063;48.140;11.588;2022-11-20T14:17:33;1.40;;;1.30;;
42420;SDS011;28063;48.140;11.588;2022-11-20T14:20:01;1.10;;;1.00;;
42420;SDS011;28063;48.140;11.588;2022-11-20T14:22:28;3.78;;;1.60;;
42420;SDS011;28063;48.140;11.588;2022-11-20T14:25:17;3.08;;;1.33;;
42420;SDS011;28063;48.140;11.588;2022-11-20T14:27:51;1.33;;;1.10;;
42420;SDS011;28063;48.140;11.588;2022-11-20T14:30:24;3.60;;;1.27;;
42420;SDS011;28063;48.140;11.588;2022-11-20T14:32:51;1.17;;;0.98;;
42420;SDS011;28063;48.140;11.588;2022-11-20T14:37:47;0.80;;;0.80;;
42420;SDS011;28063;48.140;11.588;2022-11-20T14:40:24;1.00;;;0.82;;
42420;SDS011;28063;48.140;11.588;2022-11-20T14:42:51;1.30;;;1.20;;
42420;SDS011;28063;48.140;11.588;2022-11-20T14:45:17;1.00;;;0.80;;
42420;SDS011;28063;48.140;11.588;2022-11-20T14:47:44;1.08;;;0.90;;
42420;SDS011;28063;48.140;11.588;2022-11-20T14:50:15;3.47;;;1.20;;
42420;SDS011;28063;48.140;11.588;2022-11-20T14:52:49;2.15;;;1.48;;
42420;SDS011;28063;48.140;11.588;2022-11-20T14:55:24;1.58;;;0.90;;
42420;SDS011;28063;48.140;11.588;2022-11-20T14:57:54;1.95;;;1.02;;
42420;SDS011;28063;48.140;11.588;2022-11-20T15:00:21;1.17;;;1.02;;
42420;SDS011;28063;48.140;11.588;2022-11-20T15:02:48;1.60;;;0.70;;
42420;SDS011;28063;48.140;11.588;2022-11-20T15:05:15;1.23;;;0.82;;
42420;SDS011;28063;48.140;11.588;2022-11-20T15:07:45;1.60;;;0.90;;
42420;SDS011;28063;48.140;11.588;2022-11-20T15:12:51;2.65;;;0.90;;
42420;SDS011;28063;48.140;11.588;2022-11-20T15:15:29;1.00;;;0.50;;
42420;SDS011;28063;48.140;11.588;2022-11-20T15:17:56;0.63;;;0.60;;
42420;SDS011;28063;48.140;11.588;2022-11-20T15:20:24;0.60;;;0.60;;
42420;SDS011;28063;48.140;11.588;2022-11-20T15:22:51;2.97;;;1.08;;
42420;SDS011;28063;48.140;11.588;2022-11-20T15:25:17;1.92;;;0.63;;
42420;SDS011;28063;48.140;11.588;2022-11-20T15:27:44;1.80;;;0.88;;
42420;SDS011;28063;48.140;11.588;2022-11-20T15:30:18;0.82;;;0.52;;
42420;SDS011;28063;48.140;11.588;2022-11-20T15:32:44;1.50;;;1.38;;
42420;SDS011;28063;48.140;11.588;2022-11-20T15:35:11;56.00;;;22.08;;
42420;SDS011;28063;48.140;11.588;2022-11-20T15:37:37;12.25;;;7.05;;
42420;SDS011;28063;48.140;11.588;2022-11-20T15:40:03;14.70;;;7.30;;
42420;SDS011;28063;48.140;11.588;2022-11-20T15:42:30;10.13;;;7.43;;
42420;SDS011;28063;48.140;11.588;2022-11-20T15:44:56;5.25;;;4.75;;
42420;SDS011;28063;48.140;11.588;2022-11-20T15:47:23;22.33;;;10.50;;
42420;SDS011;28063;48.140;11.588;2022-11-20T15:49:50;11.18;;;6.93;;
42420;SDS011;28063;48.140;11.588;2022-11-20T15:52:16;10.35;;;5.53;;
42420;SDS011;28063;48.140;11.588;2022-11-20T15:54:42;2.45;;;1.52;;
42420;SDS011;28063;48.140;11.588;2022-11-20T15:57:08;1.20;;;1.10;;
42420;SDS011;28063;48.140;11.588;2022-11-20T15:59:34;5.00;;;3.22;;
42420;SDS011;28063;48.140;11.588;2022-11-20T16:02:08;3.40;;;2.55;;
42420;SDS011;28063;48.140;11.588;2022-11-20T16:04:34;5.10;;;3.50;;
42420;SDS011;28063;48.140;11.588;2022-11-20T16:07:00;14.93;;;8.52;;
42420;SDS011;28063;48.140;11.588;2022-11-20T16:09:26;21.88;;;12.23;;
42420;SDS011;28063;48.140;11.588;2022-11-20T16:11:52;10.90;;;5.88;;
42420;SDS011;28063;48.140;11.588;2022-11-20T16:14:19;20.83;;;13.07;;
42420;SDS011;28063;48.140;11.588;2022-11-20T16:17:03;63.42;;;28.17;;
42420;SDS011;28063;48.140;11.588;2022-11-20T16:19:29;21.40;;;11.95;;
42420;SDS011;28063;48.140;11.588;2022-11-20T16:21:57;10.20;;;6.68;;
42420;SDS011;28063;48.140;11.588;2022-11-20T16:24:25;7.90;;;5.25;;
42420;SDS011;28063;48.140;11.588;2022-11-20T16:26:52;5.68;;;4.05;;